Hovedside
METAR-TAF:

METAR-TAF

Lufthavner :

Utti, Finland

Utti lufthavn

breddegrad: 60-54N, lengdegrad: 026-56E, høyde over havet: 100 m

Gjeldene værobservasjon

Denne rapporten ble laget for 26 minutter siden, klokken 07:20 UTC
Vind 2 kt fra Nord-nordøst
Temperatur 0°C
Luftfuktighet 93%
Trykk 1032 hPa
Sikt 10 km eller mer
Brutte skyer i en høyde av 2500 ft

METAR: EFUT 240720Z 03002KT 9999 BKN025 00/M01 Q1032

Tid: 10:46 (07:46 UTC)

Varsel

Denne rapporten ble laget for 2 timer og 9 minutter siden, klokken 05:37 UTC
Varsel gyldig fra 24. klokken 06 UTC til 24. klokken 13 UTC
Vind 4 kt fra Nord-nordøst
Sikt 10 km eller mer
Få skyer i en høyde av 200 ft
Midlertidig
fra 24. klokken 11 UTC til 24. klokken 13 UTC
Sikt: 6000 m
snøbyger, regn

TAF: EFUT 240537Z 2406/2413 02004KT 9999 FEW002 TEMPO 2411/2413 6000 SHSNRA

Værobservasjoner og værvarsel for over 4000 flyplasser (METAR- og TAF-rapporter).

Tilgjengelige stasjoner er representert av de røde og gule prikkene på kartet.

Hold musepekeren over prikken for å se navnet på stasjonen.

Klikk så for å se værobservasjoner og -varsler.

For å forandre kartet kan du klikke på den grønne knappen med svart kryss for å zoome inn, på den grønne knappen med strek for å zoome ut, eller på de grønne pilene for å se tilstøtende kart.


METAR-TAF: